createdAt,value
2022-08-03T00:01:57.498Z,100.00
2022-08-03T00:04:34.242Z,100.00
2022-08-03T00:07:03.045Z,100.00
2022-08-03T00:09:35.701Z,100.00
2022-08-03T00:12:04.973Z,100.00
2022-08-03T00:14:33.783Z,100.00
2022-08-03T00:17:03.829Z,100.00
2022-08-03T00:19:32.551Z,100.00
2022-08-03T00:22:01.400Z,100.00
2022-08-03T00:24:31.688Z,100.00
2022-08-03T00:27:00.563Z,100.00
2022-08-03T00:29:29.460Z,100.00
2022-08-03T00:32:00.163Z,100.00
2022-08-03T00:34:36.498Z,100.00
2022-08-03T00:37:23.276Z,100.00
2022-08-03T00:40:16.231Z,100.00
2022-08-03T00:43:06.414Z,100.00
2022-08-03T00:45:38.476Z,100.00
2022-08-03T00:48:19.786Z,100.00
2022-08-03T00:51:09.358Z,100.00
2022-08-03T00:53:48.752Z,100.00
2022-08-03T00:56:18.896Z,100.00
2022-08-03T00:58:48.167Z,100.00
2022-08-03T01:01:17.087Z,100.00
2022-08-03T01:03:46.693Z,100.00
2022-08-03T01:06:18.779Z,100.00
2022-08-03T01:08:59.603Z,100.00
2022-08-03T01:12:00.947Z,100.00
2022-08-03T01:14:47.532Z,100.00
2022-08-03T01:17:26.303Z,100.00
2022-08-03T01:19:55.118Z,100.00
2022-08-03T01:22:41.085Z,100.00
2022-08-03T01:25:37.283Z,100.00
2022-08-03T01:28:19.229Z,100.00
2022-08-03T01:30:55.440Z,100.00
2022-08-03T01:33:29.146Z,100.00
2022-08-03T01:36:05.602Z,100.00
2022-08-03T01:38:45.333Z,100.00
2022-08-03T01:41:31.370Z,100.00
2022-08-03T01:44:27.312Z,100.00
2022-08-03T01:46:53.769Z,100.00
2022-08-03T01:49:23.214Z,98.32
2022-08-03T01:52:04.137Z,100.00
2022-08-03T01:54:42.663Z,98.01
2022-08-03T01:57:12.210Z,100.00
2022-08-03T01:59:42.874Z,100.00
2022-08-03T02:02:33.506Z,100.00
2022-08-03T02:05:10.631Z,100.00
2022-08-03T02:07:42.430Z,100.00
2022-08-03T02:10:34.508Z,99.83
2022-08-03T02:13:08.315Z,100.00
2022-08-03T02:15:48.762Z,100.00
2022-08-03T02:18:19.537Z,100.00
2022-08-03T02:21:10.869Z,97.37
2022-08-03T02:23:41.381Z,100.00
2022-08-03T02:26:16.145Z,100.00
2022-08-03T02:28:50.159Z,100.00
2022-08-03T02:31:27.744Z,97.40
2022-08-03T02:34:09.210Z,100.00
2022-08-03T02:36:40.238Z,100.00
2022-08-03T02:39:12.105Z,98.63
2022-08-03T02:41:53.154Z,98.05
2022-08-03T02:44:27.043Z,100.00
2022-08-03T02:46:59.394Z,100.00
2022-08-03T02:49:42.632Z,100.00
2022-08-03T02:52:19.949Z,96.31
2022-08-03T02:54:51.492Z,98.81
2022-08-03T02:57:22.362Z,97.38
2022-08-03T02:59:53.523Z,100.00
2022-08-03T03:02:25.979Z,100.00
2022-08-03T03:05:56.364Z,99.04
2022-08-03T03:07:56.824Z,100.00
2022-08-03T03:10:38.231Z,97.75
2022-08-03T03:13:10.273Z,95.29
2022-08-03T03:15:40.349Z,100.00
2022-08-03T03:18:22.994Z,99.63
2022-08-03T03:20:54.780Z,100.00
2022-08-03T03:23:25.458Z,96.68
2022-08-03T03:26:00.632Z,97.26
2022-08-03T03:28:29.799Z,95.21
2022-08-03T03:31:02.009Z,91.93
2022-08-03T03:33:34.315Z,93.28
2022-08-03T03:36:05.061Z,91.03
2022-08-03T03:38:34.671Z,91.96
2022-08-03T03:41:04.958Z,83.77
2022-08-03T03:43:33.993Z,86.81
2022-08-03T03:46:07.958Z,90.31
2022-08-03T03:48:36.829Z,88.00
2022-08-03T03:51:06.405Z,84.16
2022-08-03T03:53:35.133Z,85.22
2022-08-03T03:56:04.692Z,85.23
2022-08-03T03:58:35.495Z,83.99
2022-08-03T04:01:04.449Z,84.71
2022-08-03T04:03:33.304Z,82.28
2022-08-03T04:06:20.975Z,86.58
2022-08-03T04:09:19.031Z,87.08
2022-08-03T04:11:54.751Z,87.03
2022-08-03T04:14:34.558Z,82.19
2022-08-03T04:17:09.477Z,81.39
2022-08-03T04:19:44.211Z,81.60
2022-08-03T04:22:18.326Z,81.14
2022-08-03T04:25:00.575Z,77.97
2022-08-03T04:27:34.839Z,79.71
2022-08-03T04:30:06.172Z,78.53
2022-08-03T04:32:37.726Z,79.09
2022-08-03T04:35:08.180Z,76.28
2022-08-03T04:37:49.225Z,69.90
2022-08-03T04:40:31.717Z,70.05
2022-08-03T04:43:02.517Z,70.72
2022-08-03T04:45:33.375Z,67.99
2022-08-03T04:48:03.069Z,70.35
2022-08-03T04:50:32.384Z,71.33
2022-08-03T04:53:07.677Z,69.56
2022-08-03T04:55:41.242Z,70.78
2022-08-03T04:58:09.928Z,64.76
2022-08-03T05:00:39.165Z,67.56
2022-08-03T05:03:20.105Z,69.16
2022-08-03T05:06:01.754Z,69.80
2022-08-03T05:08:46.879Z,74.45
2022-08-03T05:11:17.876Z,74.50
2022-08-03T05:13:50.994Z,69.50
2022-08-03T05:16:29.908Z,66.24
2022-08-03T05:18:58.741Z,67.58
2022-08-03T05:21:51.156Z,70.73
2022-08-03T05:24:16.276Z,73.24
2022-08-03T05:26:45.105Z,71.51
2022-08-03T05:29:13.939Z,70.88
2022-08-03T05:31:42.755Z,73.96
2022-08-03T05:34:11.567Z,70.71
2022-08-03T05:36:40.365Z,68.31
2022-08-03T05:39:09.141Z,65.17
2022-08-03T05:41:39.509Z,66.95
2022-08-03T05:44:08.254Z,65.74
2022-08-03T05:46:37.014Z,71.48
2022-08-03T05:49:05.904Z,71.24
2022-08-03T05:51:34.702Z,68.07
2022-08-03T05:54:04.080Z,71.11
2022-08-03T05:56:32.795Z,67.48
2022-08-03T05:59:28.789Z,65.57
2022-08-03T06:02:05.980Z,66.53
2022-08-03T06:04:34.801Z,67.01
2022-08-03T06:07:03.927Z,66.70
2022-08-03T06:10:33.239Z,66.58
2022-08-03T06:12:22.080Z,72.45
2022-08-03T06:14:51.023Z,70.35
2022-08-03T06:17:19.906Z,70.19
2022-08-03T06:19:48.709Z,66.79
2022-08-03T06:22:18.272Z,65.51
2022-08-03T06:24:57.003Z,61.82
2022-08-03T06:27:28.332Z,68.76
2022-08-03T06:30:16.020Z,66.00
2022-08-03T06:32:51.808Z,56.63
2022-08-03T06:35:21.821Z,59.70
2022-08-03T06:37:52.069Z,57.77
2022-08-03T06:40:31.711Z,58.62
2022-08-03T06:43:12.854Z,56.08
2022-08-03T06:45:44.728Z,53.48
2022-08-03T06:48:16.513Z,56.22
2022-08-03T06:50:45.378Z,53.60
2022-08-03T06:53:19.922Z,55.56
2022-08-03T06:55:54.341Z,56.56
2022-08-03T06:58:34.244Z,60.88
2022-08-03T07:01:03.098Z,59.82
2022-08-03T07:03:31.965Z,58.84
2022-08-03T07:06:01.869Z,58.52
2022-08-03T07:08:33.487Z,55.46
2022-08-03T07:11:13.143Z,51.96
2022-08-03T07:13:47.020Z,51.48
2022-08-03T07:16:25.295Z,59.43
2022-08-03T07:19:03.626Z,58.31
2022-08-03T07:21:32.359Z,56.56
2022-08-03T07:24:07.047Z,56.48
2022-08-03T07:26:40.327Z,57.40
2022-08-03T07:29:14.732Z,54.85
2022-08-03T07:31:44.106Z,57.34
2022-08-03T07:34:13.049Z,61.90
2022-08-03T07:36:41.889Z,59.48
2022-08-03T07:39:14.712Z,58.14
2022-08-03T07:41:52.278Z,55.49
2022-08-03T07:44:21.114Z,57.95
2022-08-03T07:46:51.184Z,56.10
2022-08-03T07:49:20.810Z,55.62
2022-08-03T07:52:18.815Z,59.23
2022-08-03T07:54:53.035Z,53.82
2022-08-03T07:57:22.384Z,56.22
2022-08-03T08:00:02.734Z,50.49
2022-08-03T08:02:50.434Z,52.43
2022-08-03T08:05:19.390Z,52.78
2022-08-03T08:07:51.569Z,60.45
2022-08-03T08:10:26.140Z,61.34
2022-08-03T08:12:55.875Z,60.68
2022-08-03T08:15:25.211Z,56.02
2022-08-03T08:17:56.065Z,59.28
2022-08-03T08:20:31.377Z,54.31
2022-08-03T08:23:03.110Z,57.10
2022-08-03T08:25:33.204Z,56.24
2022-08-03T08:28:29.587Z,58.15
2022-08-03T08:30:54.403Z,53.06
2022-08-03T08:33:24.037Z,54.28
2022-08-03T08:35:54.343Z,55.95
2022-08-03T08:38:23.967Z,56.78
2022-08-03T08:40:57.121Z,50.25
2022-08-03T08:43:26.154Z,55.64
2022-08-03T08:45:56.878Z,54.49
2022-08-03T08:48:28.655Z,54.47
2022-08-03T08:50:58.083Z,57.12
2022-08-03T08:53:33.552Z,54.53
2022-08-03T08:56:04.258Z,52.08
2022-08-03T08:58:39.153Z,48.51
2022-08-03T09:01:08.139Z,52.28
2022-08-03T09:03:37.075Z,50.42
2022-08-03T09:06:19.386Z,58.82
2022-08-03T09:08:53.470Z,54.60
2022-08-03T09:11:52.379Z,58.22
2022-08-03T09:14:37.028Z,54.92
2022-08-03T09:17:07.671Z,56.06
2022-08-03T09:20:08.770Z,54.68
2022-08-03T09:22:51.919Z,57.18
2022-08-03T09:25:34.065Z,55.59
2022-08-03T09:28:10.788Z,55.99
2022-08-03T09:30:44.575Z,56.51
2022-08-03T09:33:17.016Z,53.00
2022-08-03T09:35:53.949Z,56.72
2022-08-03T09:38:27.745Z,56.90
2022-08-03T09:41:00.272Z,57.36
2022-08-03T09:43:46.161Z,60.75
2022-08-03T09:46:14.902Z,55.15
2022-08-03T09:48:43.653Z,56.42
2022-08-03T09:51:32.829Z,55.89
2022-08-03T09:54:16.102Z,56.01
2022-08-03T09:56:58.566Z,53.83
2022-08-03T09:59:34.202Z,57.40
2022-08-03T10:02:22.313Z,57.96
2022-08-03T10:04:56.829Z,55.86
2022-08-03T10:07:47.114Z,56.92
2022-08-03T10:10:28.943Z,55.58
2022-08-03T10:13:00.963Z,56.57
2022-08-03T10:16:24.078Z,56.13
2022-08-03T10:18:29.888Z,56.75
2022-08-03T10:21:08.373Z,53.92
2022-08-03T10:23:39.224Z,54.97
2022-08-03T10:26:23.183Z,56.29
2022-08-03T10:28:54.487Z,56.00
2022-08-03T10:31:24.832Z,54.83
2022-08-03T10:33:58.572Z,52.03
2022-08-03T10:36:32.610Z,54.14
2022-08-03T10:39:03.363Z,57.04
2022-08-03T10:41:48.183Z,51.40
2022-08-03T10:44:23.573Z,48.27
2022-08-03T10:46:53.703Z,51.38
2022-08-03T10:49:33.843Z,50.44
2022-08-03T10:52:30.296Z,53.22
2022-08-03T10:55:17.765Z,49.89
2022-08-03T10:58:00.843Z,50.45
2022-08-03T11:00:51.276Z,48.82
2022-08-03T11:03:21.131Z,44.52
2022-08-03T11:05:50.444Z,42.23
2022-08-03T11:08:24.646Z,41.08
2022-08-03T11:11:01.871Z,38.06
2022-08-03T11:13:34.168Z,35.42
2022-08-03T11:16:21.972Z,37.64
2022-08-03T11:19:01.603Z,35.54
2022-08-03T11:21:51.530Z,33.89
2022-08-03T11:24:41.224Z,33.32
2022-08-03T11:27:28.015Z,27.71
2022-08-03T11:29:59.959Z,33.00
2022-08-03T11:32:46.596Z,31.72
2022-08-03T11:35:22.287Z,31.71
2022-08-03T11:38:02.984Z,33.30
2022-08-03T11:40:52.663Z,31.98
2022-08-03T11:43:35.629Z,32.72
2022-08-03T11:46:14.050Z,31.55
2022-08-03T11:49:10.541Z,33.32
2022-08-03T11:51:41.268Z,32.55
2022-08-03T11:54:11.735Z,32.97
2022-08-03T11:56:51.154Z,32.15
2022-08-03T11:59:33.273Z,31.57
2022-08-03T12:02:15.142Z,31.94
2022-08-03T12:05:03.291Z,31.18
2022-08-03T12:08:03.376Z,31.46
2022-08-03T12:10:21.545Z,30.25
2022-08-03T12:12:57.975Z,33.34
2022-08-03T12:15:27.239Z,29.32
2022-08-03T12:17:57.961Z,28.47
2022-08-03T12:20:34.955Z,32.90
2022-08-03T12:23:06.351Z,32.19
2022-08-03T12:25:39.671Z,32.40
2022-08-03T12:28:28.315Z,29.89
2022-08-03T12:31:09.707Z,31.45
2022-08-03T12:34:03.201Z,33.82
2022-08-03T12:36:35.695Z,31.17
2022-08-03T12:39:09.714Z,31.86
2022-08-03T12:41:41.290Z,31.39
2022-08-03T12:44:16.131Z,31.77
2022-08-03T12:46:48.006Z,32.54
2022-08-03T12:49:20.250Z,35.24
2022-08-03T12:51:51.948Z,30.14
2022-08-03T12:54:27.039Z,30.90
2022-08-03T12:57:00.084Z,32.19
2022-08-03T12:59:35.019Z,31.85
2022-08-03T13:02:09.534Z,34.51
2022-08-03T13:04:38.587Z,32.11
2022-08-03T13:07:12.678Z,35.19
2022-08-03T13:09:48.634Z,33.67
2022-08-03T13:12:30.328Z,33.51
2022-08-03T13:15:03.211Z,32.11
2022-08-03T13:17:32.149Z,34.88
2022-08-03T13:20:00.936Z,32.29
2022-08-03T13:22:29.753Z,35.47
2022-08-03T13:24:58.662Z,34.60
2022-08-03T13:28:11.075Z,31.96
2022-08-03T13:30:30.088Z,36.72
2022-08-03T13:33:00.869Z,36.18
2022-08-03T13:35:29.775Z,34.43
2022-08-03T13:37:58.671Z,32.32
2022-08-03T13:40:30.032Z,32.53
2022-08-03T13:42:59.463Z,32.76
2022-08-03T13:45:37.995Z,33.98
2022-08-03T13:48:08.481Z,34.87
2022-08-03T13:50:42.558Z,36.21
2022-08-03T13:53:11.883Z,36.41
2022-08-03T13:55:40.793Z,36.02
2022-08-03T13:58:12.710Z,38.99
2022-08-03T14:00:41.782Z,36.66
2022-08-03T14:03:21.729Z,36.84
2022-08-03T14:05:50.563Z,36.41
2022-08-03T14:08:23.989Z,36.33
2022-08-03T14:10:57.812Z,36.85
2022-08-03T14:13:29.587Z,36.55
2022-08-03T14:15:58.460Z,37.59
2022-08-03T14:18:41.556Z,39.45
2022-08-03T14:21:20.313Z,44.22
2022-08-03T14:23:49.192Z,58.05
2022-08-03T14:26:19.184Z,66.02
2022-08-03T14:28:47.960Z,66.32
2022-08-03T14:32:09.914Z,70.36
2022-08-03T14:34:05.718Z,72.84
2022-08-03T14:36:35.547Z,72.67
2022-08-03T14:39:04.710Z,74.21
2022-08-03T14:41:33.607Z,72.35
2022-08-03T14:44:02.634Z,75.25
2022-08-03T14:46:33.661Z,75.72
2022-08-03T14:50:32.222Z,75.97
2022-08-03T14:51:55.236Z,75.88
2022-08-03T14:54:24.190Z,77.33
2022-08-03T14:57:03.256Z,79.44
2022-08-03T14:59:55.777Z,80.43
2022-08-03T15:02:23.745Z,79.92
2022-08-03T15:05:02.334Z,81.91
2022-08-03T15:07:36.592Z,81.32
2022-08-03T15:10:10.377Z,82.74
2022-08-03T15:12:49.676Z,81.37
2022-08-03T15:15:18.372Z,83.53
2022-08-03T15:18:00.157Z,82.87
2022-08-03T15:20:43.395Z,86.15
2022-08-03T15:23:14.421Z,87.32
2022-08-03T15:26:32.241Z,86.72
2022-08-03T15:28:33.676Z,89.51
2022-08-03T15:31:02.632Z,88.50
2022-08-03T15:33:31.564Z,88.09
2022-08-03T15:36:00.868Z,87.71
2022-08-03T15:38:29.736Z,87.25
2022-08-03T15:40:59.389Z,87.62
2022-08-03T15:43:28.261Z,89.76
2022-08-03T15:48:46.236Z,91.37
2022-08-03T15:51:20.110Z,91.16
2022-08-03T15:53:48.908Z,94.34
2022-08-03T15:56:18.886Z,95.48
2022-08-03T15:59:04.205Z,97.30
2022-08-03T16:01:47.714Z,98.86
2022-08-03T16:04:16.625Z,96.23
2022-08-03T16:06:45.436Z,98.66
2022-08-03T16:09:23.699Z,98.70
2022-08-03T16:12:04.539Z,100.00
2022-08-03T16:14:43.413Z,98.51
2022-08-03T16:17:20.028Z,100.00
2022-08-03T16:19:49.126Z,100.00
2022-08-03T16:22:26.986Z,100.00
2022-08-03T16:24:56.051Z,96.06
2022-08-03T16:27:37.401Z,95.60
2022-08-03T16:30:17.125Z,100.00
2022-08-03T16:32:46.349Z,100.00
2022-08-03T16:35:19.742Z,100.00
2022-08-03T16:37:54.629Z,100.00
2022-08-03T16:40:26.986Z,100.00
2022-08-03T16:42:56.160Z,100.00
2022-08-03T16:45:25.277Z,97.18
2022-08-03T16:48:01.640Z,97.41
2022-08-03T16:50:42.353Z,100.00
2022-08-03T16:53:33.121Z,100.00
2022-08-03T16:56:09.918Z,100.00
2022-08-03T16:58:42.161Z,100.00
2022-08-03T17:01:22.216Z,100.00
2022-08-03T17:04:02.377Z,100.00
2022-08-03T17:06:38.369Z,100.00
2022-08-03T17:09:17.971Z,100.00
2022-08-03T17:11:49.206Z,100.00
2022-08-03T17:14:29.394Z,100.00
2022-08-03T17:17:02.087Z,100.00
2022-08-03T17:19:35.512Z,100.00
2022-08-03T17:22:12.477Z,100.00
2022-08-03T17:24:46.991Z,100.00
2022-08-03T17:28:49.248Z,100.00
2022-08-03T17:30:18.980Z,100.00
2022-08-03T17:32:57.119Z,100.00
2022-08-03T17:35:36.902Z,100.00
2022-08-03T17:38:13.825Z,100.00
2022-08-03T17:40:50.195Z,100.00
2022-08-03T17:44:13.420Z,100.00
2022-08-03T17:46:12.192Z,100.00
2022-08-03T17:48:49.130Z,100.00
2022-08-03T17:51:34.770Z,100.00
2022-08-03T17:55:57.429Z,100.00
2022-08-03T17:58:02.050Z,100.00
2022-08-03T18:00:52.135Z,96.95
2022-08-03T18:03:32.469Z,100.00
2022-08-03T18:06:28.820Z,100.00
2022-08-03T18:09:04.872Z,100.00
2022-08-03T18:11:58.626Z,100.00
2022-08-03T18:14:57.760Z,100.00
2022-08-03T18:17:55.621Z,100.00
2022-08-03T18:20:32.842Z,100.00
2022-08-03T18:23:07.834Z,100.00
2022-08-03T18:25:45.468Z,100.00
2022-08-03T18:28:29.460Z,100.00
2022-08-03T18:30:58.866Z,100.00
2022-08-03T18:36:34.769Z,100.00
2022-08-03T18:39:05.705Z,99.37
2022-08-03T18:41:36.800Z,99.34
2022-08-03T18:44:37.307Z,99.14
2022-08-03T18:47:16.079Z,100.00
2022-08-03T18:54:04.025Z,100.00
2022-08-03T18:57:08.313Z,100.00
2022-08-03T19:00:12.208Z,100.00
2022-08-03T19:02:56.471Z,100.00
2022-08-03T19:05:56.551Z,100.00
2022-08-03T19:08:29.232Z,100.00
2022-08-03T19:11:06.041Z,100.00
2022-08-03T19:13:50.441Z,100.00
2022-08-03T19:16:39.937Z,100.00
2022-08-03T19:19:14.474Z,100.00
2022-08-03T19:21:45.570Z,100.00
2022-08-03T19:24:26.818Z,100.00
2022-08-03T19:26:56.436Z,100.00
2022-08-03T19:29:59.641Z,100.00
2022-08-03T19:32:29.238Z,100.00
2022-08-03T19:34:59.754Z,100.00
2022-08-03T19:37:38.434Z,100.00
2022-08-03T19:40:10.460Z,100.00
2022-08-03T19:42:46.167Z,100.00
2022-08-03T19:45:22.351Z,100.00
2022-08-03T19:48:14.396Z,100.00
2022-08-03T19:50:44.623Z,100.00
2022-08-03T19:53:14.084Z,100.00
2022-08-03T19:55:46.433Z,100.00
2022-08-03T19:58:28.745Z,100.00
2022-08-03T20:00:59.699Z,100.00
2022-08-03T20:03:49.647Z,100.00
2022-08-03T20:06:29.118Z,100.00
2022-08-03T20:08:58.745Z,100.00
2022-08-03T20:11:43.654Z,100.00
2022-08-03T20:14:26.299Z,100.00
2022-08-03T20:16:55.675Z,100.00
2022-08-03T20:19:32.654Z,100.00
2022-08-03T20:22:04.876Z,100.00
2022-08-03T20:24:52.596Z,100.00
2022-08-03T20:27:32.235Z,100.00
2022-08-03T20:30:27.308Z,100.00
2022-08-03T20:32:56.352Z,100.00
2022-08-03T20:35:25.255Z,100.00
2022-08-03T20:37:56.345Z,100.00
2022-08-03T20:40:33.980Z,100.00
2022-08-03T20:43:02.769Z,100.00
2022-08-03T20:45:59.578Z,100.00
2022-08-03T20:48:21.998Z,100.00
2022-08-03T20:50:51.700Z,100.00
2022-08-03T20:53:57.480Z,100.00
2022-08-03T20:56:10.254Z,100.00
2022-08-03T20:58:41.620Z,100.00
2022-08-03T21:01:15.787Z,100.00
2022-08-03T21:03:55.459Z,100.00
2022-08-03T21:06:45.722Z,100.00
2022-08-03T21:09:42.273Z,100.00
2022-08-03T21:13:05.735Z,99.94
2022-08-03T21:16:12.053Z,100.00
2022-08-03T21:18:51.893Z,100.00
2022-08-03T21:21:23.752Z,100.00
2022-08-03T21:23:59.411Z,100.00
2022-08-03T21:26:32.271Z,100.00
2022-08-03T21:29:14.438Z,100.00
2022-08-03T21:31:53.585Z,100.00
2022-08-03T21:34:35.338Z,100.00
2022-08-03T21:37:04.410Z,100.00
2022-08-03T21:39:33.430Z,100.00
2022-08-03T21:42:02.435Z,100.00
2022-08-03T21:44:39.387Z,100.00
2022-08-03T21:47:11.548Z,100.00
2022-08-03T21:50:04.515Z,100.00
2022-08-03T21:52:34.256Z,100.00
2022-08-03T21:55:09.359Z,100.00
2022-08-03T21:57:52.670Z,100.00
2022-08-03T22:00:24.112Z,100.00
2022-08-03T22:02:57.955Z,100.00
2022-08-03T22:05:43.561Z,100.00
2022-08-03T22:08:18.528Z,100.00
2022-08-03T22:10:49.404Z,100.00
2022-08-03T22:13:43.103Z,100.00
2022-08-03T22:16:08.580Z,100.00
2022-08-03T22:18:41.905Z,100.00
2022-08-03T22:21:27.902Z,100.00
2022-08-03T22:24:11.078Z,100.00
2022-08-03T22:27:03.311Z,100.00
2022-08-03T22:29:43.778Z,100.00
2022-08-03T22:32:12.649Z,100.00
2022-08-03T22:34:53.214Z,100.00
2022-08-03T22:37:33.685Z,100.00
2022-08-03T22:40:08.534Z,100.00
2022-08-03T22:42:38.193Z,100.00
2022-08-03T22:45:12.504Z,100.00
2022-08-03T22:48:11.838Z,100.00
2022-08-03T22:50:43.884Z,100.00
2022-08-03T22:53:20.167Z,100.00
2022-08-03T22:55:50.064Z,100.00
2022-08-03T22:58:24.071Z,100.00
2022-08-03T23:00:58.912Z,100.00
2022-08-03T23:03:59.943Z,100.00
2022-08-03T23:06:37.300Z,100.00
2022-08-03T23:09:19.228Z,100.00
2022-08-03T23:12:01.901Z,100.00
2022-08-03T23:14:37.812Z,100.00
2022-08-03T23:17:08.148Z,100.00
2022-08-03T23:19:44.624Z,100.00
2022-08-03T23:22:17.078Z,100.00
2022-08-03T23:25:10.040Z,100.00
2022-08-03T23:27:44.032Z,100.00
2022-08-03T23:30:19.925Z,100.00
2022-08-03T23:32:54.614Z,100.00
2022-08-03T23:36:29.369Z,100.00
2022-08-03T23:38:35.922Z,100.00
2022-08-03T23:41:10.827Z,100.00
2022-08-03T23:43:53.853Z,100.00
2022-08-03T23:46:24.195Z,100.00
2022-08-03T23:49:01.297Z,100.00
2022-08-03T23:51:56.569Z,100.00
2022-08-03T23:54:43.733Z,100.00
